sensor_id;sensor_type;location;lat;lon;timestamp;temperature;humidity
16970;DHT22;8601;48.718;8.992;2023-11-19T00:01:45;7.70;99.90
16970;DHT22;8601;48.718;8.992;2023-11-19T00:04:12;7.70;99.90
16970;DHT22;8601;48.718;8.992;2023-11-19T00:06:39;7.70;99.90
16970;DHT22;8601;48.718;8.992;2023-11-19T00:09:07;7.70;99.90
16970;DHT22;8601;48.718;8.992;2023-11-19T00:11:34;7.70;99.90
16970;DHT22;8601;48.718;8.992;2023-11-19T00:14:01;7.70;99.90
16970;DHT22;8601;48.718;8.992;2023-11-19T00:16:29;7.70;99.90
16970;DHT22;8601;48.718;8.992;2023-11-19T00:18:59;7.70;99.90
16970;DHT22;8601;48.718;8.992;2023-11-19T00:21:25;7.70;99.90
16970;DHT22;8601;48.718;8.992;2023-11-19T00:23:54;7.70;99.90
16970;DHT22;8601;48.718;8.992;2023-11-19T00:26:21;7.70;99.90
16970;DHT22;8601;48.718;8.992;2023-11-19T00:28:48;7.70;99.90
16970;DHT22;8601;48.718;8.992;2023-11-19T00:31:15;7.80;99.90
16970;DHT22;8601;48.718;8.992;2023-11-19T00:33:42;7.70;99.90
16970;DHT22;8601;48.718;8.992;2023-11-19T00:36:10;7.80;99.90
16970;DHT22;8601;48.718;8.992;2023-11-19T00:38:38;7.80;99.90
16970;DHT22;8601;48.718;8.992;2023-11-19T00:41:05;7.80;99.90
16970;DHT22;8601;48.718;8.992;2023-11-19T00:43:32;7.90;99.90
16970;DHT22;8601;48.718;8.992;2023-11-19T00:45:59;8.00;99.90
16970;DHT22;8601;48.718;8.992;2023-11-19T00:48:26;7.90;99.90
16970;DHT22;8601;48.718;8.992;2023-11-19T00:50:53;8.00;99.90
16970;DHT22;8601;48.718;8.992;2023-11-19T00:53:21;8.00;99.90
16970;DHT22;8601;48.718;8.992;2023-11-19T00:55:48;8.10;99.90
16970;DHT22;8601;48.718;8.992;2023-11-19T00:58:15;8.10;99.90
16970;DHT22;8601;48.718;8.992;2023-11-19T01:00:43;8.20;99.90
16970;DHT22;8601;48.718;8.992;2023-11-19T01:03:10;8.20;99.90
16970;DHT22;8601;48.718;8.992;2023-11-19T01:05:38;8.20;99.90
16970;DHT22;8601;48.718;8.992;2023-11-19T01:08:04;8.30;99.90
16970;DHT22;8601;48.718;8.992;2023-11-19T01:10:33;8.30;99.90
16970;DHT22;8601;48.718;8.992;2023-11-19T01:13:00;8.30;99.90
16970;DHT22;8601;48.718;8.992;2023-11-19T01:15:27;8.40;99.90
16970;DHT22;8601;48.718;8.992;2023-11-19T01:17:55;8.40;99.90
16970;DHT22;8601;48.718;8.992;2023-11-19T01:20:22;8.50;99.90
16970;DHT22;8601;48.718;8.992;2023-11-19T01:22:49;8.50;99.90
16970;DHT22;8601;48.718;8.992;2023-11-19T01:25:16;8.50;99.90
16970;DHT22;8601;48.718;8.992;2023-11-19T01:27:44;8.60;99.90
16970;DHT22;8601;48.718;8.992;2023-11-19T01:30:12;8.60;99.90
16970;DHT22;8601;48.718;8.992;2023-11-19T01:32:39;8.60;99.90
16970;DHT22;8601;48.718;8.992;2023-11-19T01:35:06;8.60;99.90
16970;DHT22;8601;48.718;8.992;2023-11-19T01:37:33;8.60;99.90
16970;DHT22;8601;48.718;8.992;2023-11-19T01:40:01;8.60;99.90
16970;DHT22;8601;48.718;8.992;2023-11-19T01:42:29;8.70;99.90
16970;DHT22;8601;48.718;8.992;2023-11-19T01:45:00;8.60;99.90
16970;DHT22;8601;48.718;8.992;2023-11-19T01:47:28;8.70;99.90
16970;DHT22;8601;48.718;8.992;2023-11-19T01:49:57;8.70;99.90
16970;DHT22;8601;48.718;8.992;2023-11-19T01:52:24;8.70;99.90
16970;DHT22;8601;48.718;8.992;2023-11-19T01:54:53;8.70;99.90
16970;DHT22;8601;48.718;8.992;2023-11-19T01:57:21;8.70;99.90
16970;DHT22;8601;48.718;8.992;2023-11-19T01:59:49;8.70;99.90
16970;DHT22;8601;48.718;8.992;2023-11-19T02:02:19;8.80;99.90
16970;DHT22;8601;48.718;8.992;2023-11-19T02:04:46;8.80;99.90
16970;DHT22;8601;48.718;8.992;2023-11-19T02:07:14;8.80;99.90
16970;DHT22;8601;48.718;8.992;2023-11-19T02:09:43;8.80;99.90
16970;DHT22;8601;48.718;8.992;2023-11-19T02:12:10;8.80;99.90
16970;DHT22;8601;48.718;8.992;2023-11-19T02:14:37;8.80;99.90
16970;DHT22;8601;48.718;8.992;2023-11-19T02:17:04;8.80;99.90
16970;DHT22;8601;48.718;8.992;2023-11-19T02:19:32;8.90;99.90
16970;DHT22;8601;48.718;8.992;2023-11-19T02:21:59;8.90;99.90
16970;DHT22;8601;48.718;8.992;2023-11-19T02:24:29;8.90;99.90
16970;DHT22;8601;48.718;8.992;2023-11-19T02:27:01;8.90;99.90
16970;DHT22;8601;48.718;8.992;2023-11-19T02:29:30;8.90;99.90
16970;DHT22;8601;48.718;8.992;2023-11-19T02:31:57;8.90;99.90
16970;DHT22;8601;48.718;8.992;2023-11-19T02:34:24;8.90;99.90
16970;DHT22;8601;48.718;8.992;2023-11-19T02:36:51;9.00;99.90
16970;DHT22;8601;48.718;8.992;2023-11-19T02:39:19;9.00;99.90
16970;DHT22;8601;48.718;8.992;2023-11-19T02:41:47;9.00;99.90
16970;DHT22;8601;48.718;8.992;2023-11-19T02:44:16;9.00;99.90
16970;DHT22;8601;48.718;8.992;2023-11-19T02:46:44;9.00;99.90
16970;DHT22;8601;48.718;8.992;2023-11-19T02:49:13;9.00;99.90
16970;DHT22;8601;48.718;8.992;2023-11-19T02:51:40;9.00;99.90
16970;DHT22;8601;48.718;8.992;2023-11-19T02:54:07;9.10;99.90
16970;DHT22;8601;48.718;8.992;2023-11-19T02:56:34;9.10;99.90
16970;DHT22;8601;48.718;8.992;2023-11-19T02:59:03;9.20;99.90
16970;DHT22;8601;48.718;8.992;2023-11-19T03:01:34;9.10;99.90
16970;DHT22;8601;48.718;8.992;2023-11-19T03:04:03;9.20;99.90
16970;DHT22;8601;48.718;8.992;2023-11-19T03:06:30;9.20;99.90
16970;DHT22;8601;48.718;8.992;2023-11-19T03:08:57;9.20;99.90
16970;DHT22;8601;48.718;8.992;2023-11-19T03:11:24;9.20;99.90
16970;DHT22;8601;48.718;8.992;2023-11-19T03:13:51;9.30;99.90
16970;DHT22;8601;48.718;8.992;2023-11-19T03:16:17;9.40;99.90
16970;DHT22;8601;48.718;8.992;2023-11-19T03:18:44;9.40;99.90
16970;DHT22;8601;48.718;8.992;2023-11-19T03:21:12;9.50;99.90
16970;DHT22;8601;48.718;8.992;2023-11-19T03:23:39;9.50;99.90
16970;DHT22;8601;48.718;8.992;2023-11-19T03:26:06;9.50;99.90
16970;DHT22;8601;48.718;8.992;2023-11-19T03:28:34;9.50;99.90
16970;DHT22;8601;48.718;8.992;2023-11-19T03:31:01;9.60;99.90
16970;DHT22;8601;48.718;8.992;2023-11-19T03:33:32;9.60;99.90
16970;DHT22;8601;48.718;8.992;2023-11-19T03:35:58;9.70;99.90
16970;DHT22;8601;48.718;8.992;2023-11-19T03:38:26;9.70;99.90
16970;DHT22;8601;48.718;8.992;2023-11-19T03:40:53;9.70;99.90
16970;DHT22;8601;48.718;8.992;2023-11-19T03:43:20;9.70;99.90
16970;DHT22;8601;48.718;8.992;2023-11-19T03:45:47;9.80;99.90
16970;DHT22;8601;48.718;8.992;2023-11-19T03:48:14;9.70;99.90
16970;DHT22;8601;48.718;8.992;2023-11-19T03:50:42;9.70;99.90
16970;DHT22;8601;48.718;8.992;2023-11-19T03:53:09;9.80;99.90
16970;DHT22;8601;48.718;8.992;2023-11-19T03:55:37;9.70;99.90
16970;DHT22;8601;48.718;8.992;2023-11-19T03:58:04;9.80;99.90
16970;DHT22;8601;48.718;8.992;2023-11-19T04:00:30;9.80;99.90
16970;DHT22;8601;48.718;8.992;2023-11-19T04:02:57;9.80;99.90
16970;DHT22;8601;48.718;8.992;2023-11-19T04:05:24;9.80;99.90
16970;DHT22;8601;48.718;8.992;2023-11-19T04:07:51;9.80;99.90
16970;DHT22;8601;48.718;8.992;2023-11-19T04:10:17;9.80;99.90
16970;DHT22;8601;48.718;8.992;2023-11-19T04:12:47;9.80;99.90
16970;DHT22;8601;48.718;8.992;2023-11-19T04:15:14;9.80;99.90
16970;DHT22;8601;48.718;8.992;2023-11-19T04:17:41;9.80;99.90
16970;DHT22;8601;48.718;8.992;2023-11-19T04:20:08;9.80;99.90
16970;DHT22;8601;48.718;8.992;2023-11-19T04:22:37;9.80;99.90
16970;DHT22;8601;48.718;8.992;2023-11-19T04:25:05;9.90;99.90
16970;DHT22;8601;48.718;8.992;2023-11-19T04:27:32;9.90;99.90
16970;DHT22;8601;48.718;8.992;2023-11-19T04:30:00;9.90;99.90
16970;DHT22;8601;48.718;8.992;2023-11-19T04:32:28;9.90;99.90
16970;DHT22;8601;48.718;8.992;2023-11-19T04:34:54;9.80;99.90
16970;DHT22;8601;48.718;8.992;2023-11-19T04:37:21;9.80;99.90
16970;DHT22;8601;48.718;8.992;2023-11-19T04:39:48;9.80;99.90
16970;DHT22;8601;48.718;8.992;2023-11-19T04:42:15;9.80;99.90
16970;DHT22;8601;48.718;8.992;2023-11-19T04:44:43;9.80;99.90
16970;DHT22;8601;48.718;8.992;2023-11-19T04:47:11;9.80;99.90
16970;DHT22;8601;48.718;8.992;2023-11-19T04:49:40;9.80;99.90
16970;DHT22;8601;48.718;8.992;2023-11-19T04:52:09;9.80;99.90
16970;DHT22;8601;48.718;8.992;2023-11-19T04:54:41;9.80;99.90
16970;DHT22;8601;48.718;8.992;2023-11-19T04:57:08;9.80;99.90
16970;DHT22;8601;48.718;8.992;2023-11-19T04:59:36;9.80;99.90
16970;DHT22;8601;48.718;8.992;2023-11-19T05:02:03;9.80;99.90
16970;DHT22;8601;48.718;8.992;2023-11-19T05:04:32;9.80;99.90
16970;DHT22;8601;48.718;8.992;2023-11-19T05:06:58;9.80;99.90
16970;DHT22;8601;48.718;8.992;2023-11-19T05:09:25;9.80;99.90
16970;DHT22;8601;48.718;8.992;2023-11-19T05:11:52;9.80;99.90
16970;DHT22;8601;48.718;8.992;2023-11-19T05:14:19;9.80;99.90
16970;DHT22;8601;48.718;8.992;2023-11-19T05:16:47;9.80;99.90
16970;DHT22;8601;48.718;8.992;2023-11-19T05:19:13;9.80;99.90
16970;DHT22;8601;48.718;8.992;2023-11-19T05:21:43;9.80;99.90
16970;DHT22;8601;48.718;8.992;2023-11-19T05:24:10;9.90;99.90
16970;DHT22;8601;48.718;8.992;2023-11-19T05:26:37;9.90;99.90
16970;DHT22;8601;48.718;8.992;2023-11-19T05:29:04;9.90;99.90
16970;DHT22;8601;48.718;8.992;2023-11-19T05:31:31;9.90;99.90
16970;DHT22;8601;48.718;8.992;2023-11-19T05:33:58;9.90;99.90
16970;DHT22;8601;48.718;8.992;2023-11-19T05:36:24;9.90;99.90
16970;DHT22;8601;48.718;8.992;2023-11-19T05:38:55;10.00;99.90
16970;DHT22;8601;48.718;8.992;2023-11-19T05:41:22;10.00;99.90
16970;DHT22;8601;48.718;8.992;2023-11-19T05:43:49;10.00;99.90
16970;DHT22;8601;48.718;8.992;2023-11-19T05:46:17;10.10;99.90
16970;DHT22;8601;48.718;8.992;2023-11-19T05:48:44;10.10;99.90
16970;DHT22;8601;48.718;8.992;2023-11-19T05:51:12;10.00;99.90
16970;DHT22;8601;48.718;8.992;2023-11-19T05:53:39;10.10;99.90
16970;DHT22;8601;48.718;8.992;2023-11-19T05:56:08;10.10;99.90
16970;DHT22;8601;48.718;8.992;2023-11-19T05:58:35;10.00;99.90
16970;DHT22;8601;48.718;8.992;2023-11-19T06:01:03;10.10;99.90
16970;DHT22;8601;48.718;8.992;2023-11-19T06:03:32;10.10;99.90
16970;DHT22;8601;48.718;8.992;2023-11-19T06:06:00;10.10;99.90
16970;DHT22;8601;48.718;8.992;2023-11-19T06:08:27;10.10;99.90
16970;DHT22;8601;48.718;8.992;2023-11-19T06:10:56;10.10;99.90
16970;DHT22;8601;48.718;8.992;2023-11-19T06:13:24;10.10;99.90
16970;DHT22;8601;48.718;8.992;2023-11-19T06:15:51;10.10;99.90
16970;DHT22;8601;48.718;8.992;2023-11-19T06:18:17;10.10;99.90
16970;DHT22;8601;48.718;8.992;2023-11-19T06:20:45;10.10;99.90
16970;DHT22;8601;48.718;8.992;2023-11-19T06:23:12;10.10;99.90
16970;DHT22;8601;48.718;8.992;2023-11-19T06:25:39;10.10;99.90
16970;DHT22;8601;48.718;8.992;2023-11-19T06:28:06;10.10;99.90
16970;DHT22;8601;48.718;8.992;2023-11-19T06:30:34;10.10;99.90
16970;DHT22;8601;48.718;8.992;2023-11-19T06:33:01;10.10;99.90
16970;DHT22;8601;48.718;8.992;2023-11-19T06:35:29;10.10;99.90
16970;DHT22;8601;48.718;8.992;2023-11-19T06:38:01;10.10;99.90
16970;DHT22;8601;48.718;8.992;2023-11-19T06:40:28;10.00;99.90
16970;DHT22;8601;48.718;8.992;2023-11-19T06:42:55;10.10;99.90
16970;DHT22;8601;48.718;8.992;2023-11-19T06:45:22;10.10;99.90
16970;DHT22;8601;48.718;8.992;2023-11-19T06:47:50;10.10;99.90
16970;DHT22;8601;48.718;8.992;2023-11-19T06:50:17;10.10;99.90
16970;DHT22;8601;48.718;8.992;2023-11-19T06:52:44;10.10;99.90
16970;DHT22;8601;48.718;8.992;2023-11-19T06:55:11;10.10;99.90
16970;DHT22;8601;48.718;8.992;2023-11-19T06:57:38;10.10;99.90
16970;DHT22;8601;48.718;8.992;2023-11-19T07:00:06;10.10;99.90
16970;DHT22;8601;48.718;8.992;2023-11-19T07:02:34;10.10;99.90
16970;DHT22;8601;48.718;8.992;2023-11-19T07:05:02;10.10;99.90
16970;DHT22;8601;48.718;8.992;2023-11-19T07:07:30;10.10;99.90
16970;DHT22;8601;48.718;8.992;2023-11-19T07:09:57;10.10;99.90
16970;DHT22;8601;48.718;8.992;2023-11-19T07:12:24;10.10;99.90
16970;DHT22;8601;48.718;8.992;2023-11-19T07:14:52;10.10;99.90
16970;DHT22;8601;48.718;8.992;2023-11-19T07:17:20;10.10;99.90
16970;DHT22;8601;48.718;8.992;2023-11-19T07:19:49;10.10;99.90
16970;DHT22;8601;48.718;8.992;2023-11-19T07:22:18;10.10;99.90
16970;DHT22;8601;48.718;8.992;2023-11-19T07:24:45;10.20;99.90
16970;DHT22;8601;48.718;8.992;2023-11-19T07:27:12;10.20;99.90
16970;DHT22;8601;48.718;8.992;2023-11-19T07:29:39;10.20;99.90
16970;DHT22;8601;48.718;8.992;2023-11-19T07:32:06;10.30;99.90
16970;DHT22;8601;48.718;8.992;2023-11-19T07:34:34;10.30;99.90
16970;DHT22;8601;48.718;8.992;2023-11-19T07:37:01;10.40;99.90
16970;DHT22;8601;48.718;8.992;2023-11-19T07:39:29;10.40;99.90
16970;DHT22;8601;48.718;8.992;2023-11-19T07:41:56;10.50;99.90
16970;DHT22;8601;48.718;8.992;2023-11-19T07:44:23;10.50;99.90
16970;DHT22;8601;48.718;8.992;2023-11-19T07:46:50;10.50;99.90
16970;DHT22;8601;48.718;8.992;2023-11-19T07:49:17;10.50;99.90
16970;DHT22;8601;48.718;8.992;2023-11-19T07:51:44;10.50;99.90
16970;DHT22;8601;48.718;8.992;2023-11-19T07:54:11;10.60;99.90
16970;DHT22;8601;48.718;8.992;2023-11-19T07:56:40;10.60;99.90
16970;DHT22;8601;48.718;8.992;2023-11-19T07:59:07;10.60;99.90
16970;DHT22;8601;48.718;8.992;2023-11-19T08:01:34;10.60;99.90
16970;DHT22;8601;48.718;8.992;2023-11-19T08:04:01;10.60;99.90
16970;DHT22;8601;48.718;8.992;2023-11-19T08:06:28;10.60;99.90
16970;DHT22;8601;48.718;8.992;2023-11-19T08:08:56;10.60;99.90
16970;DHT22;8601;48.718;8.992;2023-11-19T08:11:23;10.60;99.90
16970;DHT22;8601;48.718;8.992;2023-11-19T08:13:51;10.60;99.90
16970;DHT22;8601;48.718;8.992;2023-11-19T08:16:17;10.70;99.90
16970;DHT22;8601;48.718;8.992;2023-11-19T08:18:44;10.70;99.90
16970;DHT22;8601;48.718;8.992;2023-11-19T08:21:11;10.70;99.90
16970;DHT22;8601;48.718;8.992;2023-11-19T08:23:39;10.70;99.90
16970;DHT22;8601;48.718;8.992;2023-11-19T08:26:06;10.70;99.90
16970;DHT22;8601;48.718;8.992;2023-11-19T08:28:34;10.70;99.90
16970;DHT22;8601;48.718;8.992;2023-11-19T08:31:02;10.80;99.90
16970;DHT22;8601;48.718;8.992;2023-11-19T08:33:30;10.80;99.90
16970;DHT22;8601;48.718;8.992;2023-11-19T08:35:57;10.80;99.90
16970;DHT22;8601;48.718;8.992;2023-11-19T08:38:25;10.90;99.90
16970;DHT22;8601;48.718;8.992;2023-11-19T08:40:54;10.90;99.90
16970;DHT22;8601;48.718;8.992;2023-11-19T08:43:25;10.90;99.90
16970;DHT22;8601;48.718;8.992;2023-11-19T08:45:51;10.90;99.90
16970;DHT22;8601;48.718;8.992;2023-11-19T08:48:20;10.90;99.90
16970;DHT22;8601;48.718;8.992;2023-11-19T08:50:48;11.00;99.90
16970;DHT22;8601;48.718;8.992;2023-11-19T08:53:15;11.00;99.90
16970;DHT22;8601;48.718;8.992;2023-11-19T08:55:42;11.10;99.90
16970;DHT22;8601;48.718;8.992;2023-11-19T08:58:09;11.20;99.90
16970;DHT22;8601;48.718;8.992;2023-11-19T09:00:35;11.20;99.90
16970;DHT22;8601;48.718;8.992;2023-11-19T09:03:02;11.30;99.90
16970;DHT22;8601;48.718;8.992;2023-11-19T09:05:31;11.40;99.90
16970;DHT22;8601;48.718;8.992;2023-11-19T09:07:58;11.30;99.90
16970;DHT22;8601;48.718;8.992;2023-11-19T09:10:24;11.40;99.90
16970;DHT22;8601;48.718;8.992;2023-11-19T09:12:52;11.40;99.90
16970;DHT22;8601;48.718;8.992;2023-11-19T09:15:19;11.40;99.90
16970;DHT22;8601;48.718;8.992;2023-11-19T09:17:46;11.50;99.90
16970;DHT22;8601;48.718;8.992;2023-11-19T09:20:12;11.50;99.90
16970;DHT22;8601;48.718;8.992;2023-11-19T09:22:42;11.50;99.90
16970;DHT22;8601;48.718;8.992;2023-11-19T09:25:09;11.60;99.90
16970;DHT22;8601;48.718;8.992;2023-11-19T09:27:35;11.60;99.90
16970;DHT22;8601;48.718;8.992;2023-11-19T09:30:03;11.60;99.90
16970;DHT22;8601;48.718;8.992;2023-11-19T09:32:30;12.20;99.90
16970;DHT22;8601;48.718;8.992;2023-11-19T09:34:57;12.10;99.90
16970;DHT22;8601;48.718;8.992;2023-11-19T09:37:24;12.10;99.90
16970;DHT22;8601;48.718;8.992;2023-11-19T09:39:52;12.20;99.90
16970;DHT22;8601;48.718;8.992;2023-11-19T09:42:19;12.20;99.90
16970;DHT22;8601;48.718;8.992;2023-11-19T09:44:47;12.30;99.90
16970;DHT22;8601;48.718;8.992;2023-11-19T09:47:17;12.40;99.90
16970;DHT22;8601;48.718;8.992;2023-11-19T09:49:45;12.40;99.90
16970;DHT22;8601;48.718;8.992;2023-11-19T09:52:13;12.50;99.90
16970;DHT22;8601;48.718;8.992;2023-11-19T09:54:40;12.60;99.90
16970;DHT22;8601;48.718;8.992;2023-11-19T09:57:09;12.80;99.90
16970;DHT22;8601;48.718;8.992;2023-11-19T09:59:38;12.80;99.90
16970;DHT22;8601;48.718;8.992;2023-11-19T10:02:05;12.80;99.90
16970;DHT22;8601;48.718;8.992;2023-11-19T10:04:34;12.70;99.90
16970;DHT22;8601;48.718;8.992;2023-11-19T10:07:03;12.70;99.90
16970;DHT22;8601;48.718;8.992;2023-11-19T10:09:30;12.70;99.90
16970;DHT22;8601;48.718;8.992;2023-11-19T10:11:57;12.60;99.90
16970;DHT22;8601;48.718;8.992;2023-11-19T10:14:25;12.70;99.90
16970;DHT22;8601;48.718;8.992;2023-11-19T10:16:54;13.00;99.90
16970;DHT22;8601;48.718;8.992;2023-11-19T10:19:22;13.20;99.90
16970;DHT22;8601;48.718;8.992;2023-11-19T10:21:49;13.50;99.90
16970;DHT22;8601;48.718;8.992;2023-11-19T10:24:16;13.60;99.90
16970;DHT22;8601;48.718;8.992;2023-11-19T10:26:57;13.50;99.90
16970;DHT22;8601;48.718;8.992;2023-11-19T10:29:25;13.40;99.90
16970;DHT22;8601;48.718;8.992;2023-11-19T10:31:56;13.40;99.90
16970;DHT22;8601;48.718;8.992;2023-11-19T10:34:25;13.40;99.90
16970;DHT22;8601;48.718;8.992;2023-11-19T10:36:52;13.50;99.90
16970;DHT22;8601;48.718;8.992;2023-11-19T10:39:19;13.50;99.90
16970;DHT22;8601;48.718;8.992;2023-11-19T10:41:49;13.50;99.90
16970;DHT22;8601;48.718;8.992;2023-11-19T10:47:10;13.50;99.90
16970;DHT22;8601;48.718;8.992;2023-11-19T10:49:39;13.60;99.90
16970;DHT22;8601;48.718;8.992;2023-11-19T10:52:08;13.60;99.90
16970;DHT22;8601;48.718;8.992;2023-11-19T10:54:37;13.60;99.90
16970;DHT22;8601;48.718;8.992;2023-11-19T10:57:09;13.90;99.90
16970;DHT22;8601;48.718;8.992;2023-11-19T10:59:39;14.00;99.90
16970;DHT22;8601;48.718;8.992;2023-11-19T11:02:11;14.10;99.90
16970;DHT22;8601;48.718;8.992;2023-11-19T11:04:41;14.00;99.90
16970;DHT22;8601;48.718;8.992;2023-11-19T11:07:09;14.00;99.90
16970;DHT22;8601;48.718;8.992;2023-11-19T11:09:36;14.00;99.90
16970;DHT22;8601;48.718;8.992;2023-11-19T11:12:04;14.00;99.90
16970;DHT22;8601;48.718;8.992;2023-11-19T11:14:34;14.10;99.90
16970;DHT22;8601;48.718;8.992;2023-11-19T11:17:03;14.00;99.90
16970;DHT22;8601;48.718;8.992;2023-11-19T11:19:34;14.20;99.90
16970;DHT22;8601;48.718;8.992;2023-11-19T11:22:04;14.40;99.90
16970;DHT22;8601;48.718;8.992;2023-11-19T11:24:52;14.40;99.90
16970;DHT22;8601;48.718;8.992;2023-11-19T11:28:04;14.30;99.90
16970;DHT22;8601;48.718;8.992;2023-11-19T11:30:42;14.10;99.90
16970;DHT22;8601;48.718;8.992;2023-11-19T11:33:26;14.00;99.90
16970;DHT22;8601;48.718;8.992;2023-11-19T11:36:06;13.90;99.90
16970;DHT22;8601;48.718;8.992;2023-11-19T11:38:40;13.80;99.90
16970;DHT22;8601;48.718;8.992;2023-11-19T11:41:19;13.80;99.90
16970;DHT22;8601;48.718;8.992;2023-11-19T11:43:47;13.70;99.90
16970;DHT22;8601;48.718;8.992;2023-11-19T11:49:25;13.70;99.90
16970;DHT22;8601;48.718;8.992;2023-11-19T11:52:03;13.70;99.90
16970;DHT22;8601;48.718;8.992;2023-11-19T11:54:30;13.70;99.90
16970;DHT22;8601;48.718;8.992;2023-11-19T11:57:11;13.80;99.90
16970;DHT22;8601;48.718;8.992;2023-11-19T11:59:48;13.80;99.90
16970;DHT22;8601;48.718;8.992;2023-11-19T12:02:17;13.80;99.90
16970;DHT22;8601;48.718;8.992;2023-11-19T12:04:50;13.70;99.90
16970;DHT22;8601;48.718;8.992;2023-11-19T12:07:20;13.70;99.90
16970;DHT22;8601;48.718;8.992;2023-11-19T12:09:51;13.60;99.90
16970;DHT22;8601;48.718;8.992;2023-11-19T12:12:21;13.70;99.90
16970;DHT22;8601;48.718;8.992;2023-11-19T12:15:04;13.80;99.90
16970;DHT22;8601;48.718;8.992;2023-11-19T12:17:43;13.80;99.90
16970;DHT22;8601;48.718;8.992;2023-11-19T12:20:15;13.80;99.90
16970;DHT22;8601;48.718;8.992;2023-11-19T12:22:44;14.00;99.90
16970;DHT22;8601;48.718;8.992;2023-11-19T12:25:13;14.00;99.90
16970;DHT22;8601;48.718;8.992;2023-11-19T12:27:41;14.20;99.90
16970;DHT22;8601;48.718;8.992;2023-11-19T12:30:08;14.20;99.90
16970;DHT22;8601;48.718;8.992;2023-11-19T12:32:39;14.20;99.90
16970;DHT22;8601;48.718;8.992;2023-11-19T12:35:07;14.20;99.90
16970;DHT22;8601;48.718;8.992;2023-11-19T12:37:45;14.30;99.90
16970;DHT22;8601;48.718;8.992;2023-11-19T12:40:16;14.30;99.90
16970;DHT22;8601;48.718;8.992;2023-11-19T12:42:43;14.40;99.90
16970;DHT22;8601;48.718;8.992;2023-11-19T12:45:10;14.30;99.90
16970;DHT22;8601;48.718;8.992;2023-11-19T12:47:38;14.30;99.90
16970;DHT22;8601;48.718;8.992;2023-11-19T12:50:06;14.40;99.90
16970;DHT22;8601;48.718;8.992;2023-11-19T12:52:33;14.40;99.90
16970;DHT22;8601;48.718;8.992;2023-11-19T12:55:02;14.50;99.90
16970;DHT22;8601;48.718;8.992;2023-11-19T12:57:39;14.50;99.90
16970;DHT22;8601;48.718;8.992;2023-11-19T13:00:07;14.50;99.90
16970;DHT22;8601;48.718;8.992;2023-11-19T13:02:46;14.40;99.90
16970;DHT22;8601;48.718;8.992;2023-11-19T13:05:24;14.40;99.90
16970;DHT22;8601;48.718;8.992;2023-11-19T13:08:03;14.40;99.90
16970;DHT22;8601;48.718;8.992;2023-11-19T13:10:32;14.40;99.90
16970;DHT22;8601;48.718;8.992;2023-11-19T13:13:03;14.40;99.90
16970;DHT22;8601;48.718;8.992;2023-11-19T13:15:31;14.40;99.90
16970;DHT22;8601;48.718;8.992;2023-11-19T13:17:58;14.50;99.90
16970;DHT22;8601;48.718;8.992;2023-11-19T13:20:25;14.70;99.90
16970;DHT22;8601;48.718;8.992;2023-11-19T13:22:56;14.70;99.90
16970;DHT22;8601;48.718;8.992;2023-11-19T13:25:23;14.50;99.90
16970;DHT22;8601;48.718;8.992;2023-11-19T13:27:52;14.50;99.90
16970;DHT22;8601;48.718;8.992;2023-11-19T13:30:20;14.50;99.90
16970;DHT22;8601;48.718;8.992;2023-11-19T13:32:48;14.60;99.90
16970;DHT22;8601;48.718;8.992;2023-11-19T13:35:14;14.60;99.90
16970;DHT22;8601;48.718;8.992;2023-11-19T13:37:41;14.60;99.90
16970;DHT22;8601;48.718;8.992;2023-11-19T13:40:08;14.60;99.90
16970;DHT22;8601;48.718;8.992;2023-11-19T13:42:37;14.50;99.90
16970;DHT22;8601;48.718;8.992;2023-11-19T13:45:08;14.50;99.90
16970;DHT22;8601;48.718;8.992;2023-11-19T13:47:37;14.40;99.90
16970;DHT22;8601;48.718;8.992;2023-11-19T13:50:07;14.30;99.90
16970;DHT22;8601;48.718;8.992;2023-11-19T13:52:35;14.30;99.90
16970;DHT22;8601;48.718;8.992;2023-11-19T13:55:02;14.30;99.90
16970;DHT22;8601;48.718;8.992;2023-11-19T13:57:30;14.30;99.90
16970;DHT22;8601;48.718;8.992;2023-11-19T13:59:58;14.20;99.90
16970;DHT22;8601;48.718;8.992;2023-11-19T14:02:28;14.10;99.90
16970;DHT22;8601;48.718;8.992;2023-11-19T14:04:54;14.10;99.90
16970;DHT22;8601;48.718;8.992;2023-11-19T14:07:21;14.10;99.90
16970;DHT22;8601;48.718;8.992;2023-11-19T14:09:48;14.00;99.90
16970;DHT22;8601;48.718;8.992;2023-11-19T14:12:15;14.00;99.90
16970;DHT22;8601;48.718;8.992;2023-11-19T14:14:42;14.00;99.90
16970;DHT22;8601;48.718;8.992;2023-11-19T14:17:09;14.00;99.90
16970;DHT22;8601;48.718;8.992;2023-11-19T14:19:39;14.00;99.90
16970;DHT22;8601;48.718;8.992;2023-11-19T14:22:07;13.90;99.90
16970;DHT22;8601;48.718;8.992;2023-11-19T14:24:34;13.90;99.90
16970;DHT22;8601;48.718;8.992;2023-11-19T14:27:01;13.90;99.90
16970;DHT22;8601;48.718;8.992;2023-11-19T14:29:28;13.90;99.90
16970;DHT22;8601;48.718;8.992;2023-11-19T14:31:56;13.80;99.90
16970;DHT22;8601;48.718;8.992;2023-11-19T14:34:24;13.70;99.90
16970;DHT22;8601;48.718;8.992;2023-11-19T14:36:53;13.70;99.90
16970;DHT22;8601;48.718;8.992;2023-11-19T14:39:20;13.60;99.90
16970;DHT22;8601;48.718;8.992;2023-11-19T14:41:47;13.60;99.90
16970;DHT22;8601;48.718;8.992;2023-11-19T14:44:14;13.60;99.90
16970;DHT22;8601;48.718;8.992;2023-11-19T14:46:41;13.50;99.90
16970;DHT22;8601;48.718;8.992;2023-11-19T14:49:09;13.50;99.90
16970;DHT22;8601;48.718;8.992;2023-11-19T14:51:36;13.50;99.90
16970;DHT22;8601;48.718;8.992;2023-11-19T14:54:05;13.40;99.90
16970;DHT22;8601;48.718;8.992;2023-11-19T14:56:32;13.30;99.90
16970;DHT22;8601;48.718;8.992;2023-11-19T14:58:59;13.20;99.90
16970;DHT22;8601;48.718;8.992;2023-11-19T15:01:26;13.20;99.90
16970;DHT22;8601;48.718;8.992;2023-11-19T15:03:54;13.20;99.90
16970;DHT22;8601;48.718;8.992;2023-11-19T15:06:23;13.10;99.90
16970;DHT22;8601;48.718;8.992;2023-11-19T15:08:50;13.10;99.90
16970;DHT22;8601;48.718;8.992;2023-11-19T15:11:18;13.20;99.90
16970;DHT22;8601;48.718;8.992;2023-11-19T15:13:45;13.10;99.90
16970;DHT22;8601;48.718;8.992;2023-11-19T15:16:14;13.90;99.90
16970;DHT22;8601;48.718;8.992;2023-11-19T15:18:48;13.60;99.90
16970;DHT22;8601;48.718;8.992;2023-11-19T15:21:15;13.40;99.90
16970;DHT22;8601;48.718;8.992;2023-11-19T15:23:42;13.50;99.90
16970;DHT22;8601;48.718;8.992;2023-11-19T15:26:08;14.20;99.90
16970;DHT22;8601;48.718;8.992;2023-11-19T15:28:37;14.30;99.90
16970;DHT22;8601;48.718;8.992;2023-11-19T15:31:04;14.60;99.90
16970;DHT22;8601;48.718;8.992;2023-11-19T15:33:31;14.50;99.90
16970;DHT22;8601;48.718;8.992;2023-11-19T15:35:58;14.40;99.90
16970;DHT22;8601;48.718;8.992;2023-11-19T15:38:26;14.40;99.90
16970;DHT22;8601;48.718;8.992;2023-11-19T15:40:53;13.50;99.90
16970;DHT22;8601;48.718;8.992;2023-11-19T15:43:20;13.00;99.90
16970;DHT22;8601;48.718;8.992;2023-11-19T15:45:49;12.70;99.90
16970;DHT22;8601;48.718;8.992;2023-11-19T15:48:17;12.50;99.90
16970;DHT22;8601;48.718;8.992;2023-11-19T15:50:44;12.30;99.90
16970;DHT22;8601;48.718;8.992;2023-11-19T15:53:12;12.30;99.90
16970;DHT22;8601;48.718;8.992;2023-11-19T15:55:39;12.30;99.90
16970;DHT22;8601;48.718;8.992;2023-11-19T15:58:07;12.20;99.90
16970;DHT22;8601;48.718;8.992;2023-11-19T16:00:35;12.10;99.90
16970;DHT22;8601;48.718;8.992;2023-11-19T16:03:04;12.00;99.90
16970;DHT22;8601;48.718;8.992;2023-11-19T16:05:32;12.00;99.90